Time;durP1;ratioP1;P1;durP2;ratioP2;P2;SDS_P1;SDS_P2;PMS_P1;PMS_P2;Temp;Humidity;BMP_temperature;BMP_pressure;BME280_temperature;BME280_humidity;BME280_pressure;Samples;Min_cycle;Max_cycle;Signal;HPM_P1;HPM_P2
2023/10/07 00:01:56;;;;;;;9.70;5.27;;;15.80;99.90;;;;;;5073055;28;20812;-62
2023/10/07 00:04:22;;;;;;;8.83;4.83;;;15.80;99.90;;;;;;5073437;28;20442;-62
2023/10/07 00:06:51;;;;;;;11.73;5.60;;;15.90;99.90;;;;;;5074388;28;20439;-62
2023/10/07 00:09:22;;;;;;;9.87;5.93;;;15.90;99.90;;;;;;5074230;28;20817;-62
2023/10/07 00:11:49;;;;;;;6.90;5.63;;;15.90;99.90;;;;;;5074479;28;20475;-62
2023/10/07 00:14:16;;;;;;;10.10;6.00;;;15.90;99.90;;;;;;5073944;28;20447;-62
2023/10/07 00:16:46;;;;;;;11.27;6.27;;;15.90;99.90;;;;;;5073371;28;20488;-62
2023/10/07 00:19:13;;;;;;;9.20;6.20;;;15.90;99.90;;;;;;5074014;28;20444;-63
2023/10/07 00:21:58;;;;;;;10.30;6.67;;;15.90;99.90;;;;;;5073345;28;20464;-61
2023/10/07 00:24:32;;;;;;;9.03;6.87;;;15.90;99.90;;;;;;5073162;28;20531;-62
2023/10/07 00:27:00;;;;;;;14.53;6.23;;;15.80;99.90;;;;;;5073571;28;20416;-62
2023/10/07 00:29:32;;;;;;;9.17;5.70;;;15.80;99.90;;;;;;5077150;28;20450;-62
2023/10/07 00:31:59;;;;;;;13.40;6.47;;;15.80;99.90;;;;;;5077660;28;20517;-62
2023/10/07 00:34:27;;;;;;;10.77;5.60;;;15.80;99.90;;;;;;5077535;28;20435;-62
2023/10/07 00:36:57;;;;;;;9.87;5.63;;;15.80;99.90;;;;;;5078214;28;20488;-62
2023/10/07 00:39:31;;;;;;;7.27;5.23;;;15.80;99.90;;;;;;5078732;28;20502;-62
2023/10/07 00:45:20;;;;;;;10.00;5.40;;;15.90;99.90;;;;;;5078957;28;20428;-63
2023/10/07 00:47:49;;;;;;;8.30;5.30;;;15.90;99.90;;;;;;5078606;28;20450;-63
2023/10/07 00:50:17;;;;;;;8.40;5.40;;;15.90;99.90;;;;;;5078841;28;20450;-62
2023/10/07 00:52:55;;;;;;;7.67;5.37;;;15.90;99.90;;;;;;5077068;28;20460;-62
2023/10/07 00:55:28;;;;;;;6.40;5.07;;;15.90;99.90;;;;;;5076971;28;20427;-62
2023/10/07 00:58:07;;;;;;;6.63;4.50;;;15.90;99.90;;;;;;5077018;28;20555;-62
2023/10/07 01:00:48;;;;;;;9.97;5.60;;;15.90;99.90;;;;;;5077480;28;20432;-62
2023/10/07 01:03:31;;;;;;;7.57;4.43;;;15.90;99.90;;;;;;5077154;28;20437;-62
2023/10/07 01:06:10;;;;;;;11.57;5.70;;;15.90;99.90;;;;;;5076841;28;20474;-62
2023/10/07 01:08:41;;;;;;;5.30;4.40;;;15.80;99.90;;;;;;5077147;28;20420;-62
2023/10/07 01:11:19;;;;;;;9.07;4.90;;;15.80;99.90;;;;;;5076764;28;20478;-62
2023/10/07 01:13:50;;;;;;;8.33;4.50;;;15.90;99.90;;;;;;5076807;28;20526;-62
2023/10/07 01:16:27;;;;;;;10.43;5.50;;;15.90;99.90;;;;;;5076435;28;20427;-63
2023/10/07 01:19:04;;;;;;;12.23;5.20;;;15.90;99.90;;;;;;5077040;28;20420;-63
2023/10/07 01:21:35;;;;;;;6.40;4.77;;;15.90;99.90;;;;;;5076789;28;20968;-63
2023/10/07 01:24:13;;;;;;;9.30;4.20;;;15.90;99.90;;;;;;5077013;28;20484;-63
2023/10/07 01:26:44;;;;;;;8.00;5.27;;;16.00;99.90;;;;;;5077479;28;20432;-63
2023/10/07 01:29:16;;;;;;;6.70;4.50;;;16.00;99.90;;;;;;5078339;28;20479;-63
2023/10/07 01:31:59;;;;;;;10.47;5.10;;;15.90;99.90;;;;;;5078444;28;20472;-62
2023/10/07 01:34:29;;;;;;;7.07;4.20;;;16.00;99.90;;;;;;5078587;28;20435;-63
2023/10/07 01:36:57;;;;;;;7.60;5.20;;;16.00;99.90;;;;;;5078203;28;20474;-63
2023/10/07 01:39:25;;;;;;;7.90;5.00;;;16.00;99.90;;;;;;5077504;28;20440;-64
2023/10/07 01:41:52;;;;;;;6.57;5.10;;;16.00;99.90;;;;;;5078463;28;20468;-64
2023/10/07 01:44:24;;;;;;;8.90;5.40;;;16.00;99.90;;;;;;5076458;28;20450;-62
2023/10/07 01:46:55;;;;;;;6.10;5.10;;;16.10;99.90;;;;;;5076816;28;20483;-63
2023/10/07 01:49:22;;;;;;;7.57;5.00;;;16.10;99.90;;;;;;5076852;28;20424;-63
2023/10/07 01:51:52;;;;;;;9.20;5.60;;;16.10;99.90;;;;;;5076027;28;20456;-63
2023/10/07 01:54:20;;;;;;;7.83;5.47;;;16.10;99.90;;;;;;5075830;28;20460;-63
2023/10/07 01:56:52;;;;;;;8.67;5.20;;;16.10;99.90;;;;;;5075819;28;20812;-63
2023/10/07 01:59:19;;;;;;;7.23;5.30;;;16.10;99.90;;;;;;5075614;28;20782;-64
2023/10/07 02:01:58;;;;;;;8.10;5.37;;;16.10;99.90;;;;;;5092176;22;20489;-63
2023/10/07 02:04:26;;;;;;;10.30;6.13;;;16.10;99.90;;;;;;5055030;28;20422;-63
2023/10/07 02:06:54;;;;;;;9.37;5.57;;;16.10;99.90;;;;;;5055273;28;20459;-61
2023/10/07 02:09:24;;;;;;;7.80;5.63;;;16.10;99.90;;;;;;5055234;28;20441;-63
2023/10/07 02:11:54;;;;;;;7.40;5.00;;;16.10;99.90;;;;;;5055252;28;20499;-62
2023/10/07 02:14:24;;;;;;;10.70;5.60;;;16.10;99.90;;;;;;5055632;28;20446;-62
2023/10/07 02:16:51;;;;;;;9.70;5.27;;;16.10;99.90;;;;;;5055092;28;20858;-64
2023/10/07 02:19:28;;;;;;;7.03;5.27;;;16.10;99.90;;;;;;5054767;28;20794;-61
2023/10/07 02:21:59;;;;;;;10.70;5.70;;;16.10;99.90;;;;;;5054428;28;20464;-62
2023/10/07 02:24:30;;;;;;;7.50;5.50;;;16.10;99.90;;;;;;5054871;28;20466;-62
2023/10/07 02:27:03;;;;;;;7.43;6.00;;;16.20;99.90;;;;;;5055044;28;20438;-62
2023/10/07 02:29:30;;;;;;;5.93;5.30;;;16.10;99.90;;;;;;5054907;28;20474;-62
2023/10/07 02:32:12;;;;;;;11.77;6.07;;;16.10;99.90;;;;;;5054535;28;20456;-62
2023/10/07 02:34:51;;;;;;;8.97;5.77;;;16.20;99.90;;;;;;5054734;28;20908;-62
2023/10/07 02:37:18;;;;;;;9.23;5.70;;;16.10;99.90;;;;;;5054507;28;20879;-62
2023/10/07 02:39:48;;;;;;;7.00;5.50;;;16.20;99.90;;;;;;5054790;28;20476;-62
2023/10/07 02:42:21;;;;;;;8.20;6.30;;;16.20;99.90;;;;;;5054560;28;20461;-62
2023/10/07 02:44:51;;;;;;;9.40;6.00;;;16.10;99.90;;;;;;5054520;28;20431;-61
2023/10/07 02:47:19;;;;;;;8.97;5.97;;;16.10;99.90;;;;;;5054348;28;20482;-62
2023/10/07 02:49:49;;;;;;;12.93;6.67;;;16.20;99.90;;;;;;5054472;28;20453;-62
2023/10/07 02:52:19;;;;;;;6.40;5.47;;;16.10;99.90;;;;;;5053379;28;20466;-62
2023/10/07 02:55:05;;;;;;;11.00;5.33;;;16.10;99.90;;;;;;5054587;28;20785;-61
2023/10/07 02:57:39;;;;;;;9.23;5.43;;;16.10;99.90;;;;;;5054301;28;20465;-61
2023/10/07 03:00:16;;;;;;;7.77;5.37;;;16.10;99.90;;;;;;5054142;28;20433;-61
2023/10/07 03:02:49;;;;;;;7.87;6.03;;;16.10;99.90;;;;;;5053661;28;20546;-62
2023/10/07 03:05:29;;;;;;;8.73;6.50;;;16.10;99.90;;;;;;5053934;28;20431;-62
2023/10/07 03:08:02;;;;;;;9.17;5.60;;;16.10;99.90;;;;;;5053874;28;20426;-62
2023/10/07 03:10:43;;;;;;;7.33;5.53;;;16.10;99.90;;;;;;5053737;28;20423;-60
2023/10/07 03:13:15;;;;;;;6.70;4.60;;;16.20;99.90;;;;;;5053837;28;20469;-62
2023/10/07 03:15:46;;;;;;;8.27;5.90;;;16.20;99.90;;;;;;5053569;28;20770;-62
2023/10/07 03:18:21;;;;;;;7.30;4.77;;;16.20;99.90;;;;;;5054092;28;20501;-61
2023/10/07 03:21:00;;;;;;;10.70;5.83;;;16.20;99.90;;;;;;5053697;28;20527;-61
2023/10/07 03:23:32;;;;;;;8.77;5.80;;;16.20;99.90;;;;;;5054543;28;20923;-63
2023/10/07 03:26:06;;;;;;;9.83;6.37;;;16.20;99.90;;;;;;5054440;28;20490;-63
2023/10/07 03:28:36;;;;;;;11.00;5.40;;;16.20;99.90;;;;;;5053936;28;20461;-62
2023/10/07 03:31:08;;;;;;;10.73;6.20;;;16.20;99.90;;;;;;5053542;28;20460;-62
2023/10/07 03:33:44;;;;;;;11.03;6.23;;;16.20;99.90;;;;;;5053637;28;20488;-61
2023/10/07 03:36:30;;;;;;;9.43;5.67;;;16.20;99.90;;;;;;5053989;28;20434;-61
2023/10/07 03:39:17;;;;;;;7.13;5.53;;;16.20;99.90;;;;;;5054586;28;20469;-61
2023/10/07 03:41:47;;;;;;;8.90;7.30;;;16.20;99.90;;;;;;5054204;28;20457;-61
2023/10/07 03:44:16;;;;;;;11.80;6.57;;;16.20;99.90;;;;;;5054178;28;20434;-61
2023/10/07 03:46:44;;;;;;;11.20;6.23;;;16.20;99.90;;;;;;5054563;28;20440;-61
2023/10/07 03:49:11;;;;;;;6.80;5.50;;;16.20;99.90;;;;;;5054130;28;20539;-61
2023/10/07 03:51:38;;;;;;;7.37;6.10;;;16.20;99.90;;;;;;5054371;28;20819;-61
2023/10/07 03:54:11;;;;;;;8.20;6.37;;;16.10;99.90;;;;;;5053966;28;20472;-61
2023/10/07 03:56:38;;;;;;;7.97;6.63;;;16.10;99.90;;;;;;5054058;28;20443;-62
2023/10/07 03:59:06;;;;;;;11.20;8.17;;;16.10;99.90;;;;;;5053809;28;20481;-61
2023/10/07 04:01:35;;;;;;;9.97;7.60;;;16.00;99.90;;;;;;5054560;28;20481;-61
2023/10/07 04:04:02;;;;;;;15.07;8.47;;;15.80;99.90;;;;;;5053173;28;20476;-62
2023/10/07 04:06:31;;;;;;;11.50;9.47;;;15.60;99.90;;;;;;5055404;28;20440;-61
2023/10/07 04:12:32;;;;;;;10.60;9.23;;;15.20;99.90;;;;;;5090649;28;20570;-62
2023/10/07 04:15:02;;;;;;;14.03;11.07;;;15.00;99.90;;;;;;5091127;28;20446;-62
2023/10/07 04:17:31;;;;;;;12.13;10.83;;;14.90;99.90;;;;;;5090537;28;20534;-62
2023/10/07 04:20:13;;;;;;;15.60;12.10;;;14.80;99.90;;;;;;5090673;28;20860;-62
2023/10/07 04:22:40;;;;;;;15.43;12.63;;;14.80;99.90;;;;;;5090140;28;20958;-62
2023/10/07 04:25:17;;;;;;;17.20;12.67;;;14.70;99.90;;;;;;5090178;28;20444;-62
2023/10/07 04:27:45;;;;;;;15.30;13.67;;;14.70;99.90;;;;;;5090327;28;20426;-62
2023/10/07 04:30:16;;;;;;;17.40;14.10;;;14.60;99.90;;;;;;5089989;28;20977;-61
2023/10/07 04:32:52;;;;;;;20.33;14.27;;;14.60;99.90;;;;;;5090271;28;20454;-61
2023/10/07 04:35:26;;;;;;;18.43;15.33;;;14.60;99.90;;;;;;5090187;28;20425;-62
2023/10/07 04:37:54;;;;;;;18.27;15.67;;;14.60;99.90;;;;;;5090143;28;20495;-61
2023/10/07 04:45:50;;;;;;;18.47;16.07;;;14.60;99.90;;;;;;5089765;28;20438;-62
2023/10/07 04:48:42;;;;;;;16.80;14.93;;;14.60;99.90;;;;;;5089976;28;20517;-62
2023/10/07 04:51:12;;;;;;;17.00;15.27;;;14.60;99.90;;;;;;5089909;28;20473;-62
2023/10/07 04:53:38;;;;;;;17.93;16.03;;;14.60;99.90;;;;;;5090287;28;20427;-62
2023/10/07 04:56:07;;;;;;;17.90;16.00;;;14.60;99.90;;;;;;5089504;28;20441;-60
2023/10/07 04:58:34;;;;;;;18.77;16.77;;;14.70;99.90;;;;;;5089978;28;20951;-61
2023/10/07 05:01:22;;;;;;;20.67;16.17;;;14.70;99.90;;;;;;5089168;28;20907;-62
2023/10/07 05:03:51;;;;;;;18.53;16.53;;;14.70;99.90;;;;;;5089893;28;20427;-61
2023/10/07 05:06:18;;;;;;;22.23;16.07;;;14.70;99.90;;;;;;5089753;28;20453;-61
2023/10/07 05:08:45;;;;;;;17.80;15.97;;;14.80;99.90;;;;;;5089947;28;20442;-61
2023/10/07 05:11:17;;;;;;;16.13;13.80;;;14.80;99.90;;;;;;5089154;28;20478;-61
2023/10/07 05:13:46;;;;;;;20.30;14.77;;;14.90;99.90;;;;;;5090115;28;20427;-61
2023/10/07 05:16:12;;;;;;;17.23;14.40;;;14.90;99.90;;;;;;5089850;28;20442;-61
2023/10/07 05:18:39;;;;;;;16.50;14.80;;;14.90;99.90;;;;;;5089244;28;20971;-61
2023/10/07 05:21:06;;;;;;;16.60;14.93;;;15.00;99.90;;;;;;5089482;28;20461;-61
2023/10/07 05:23:33;;;;;;;17.53;14.43;;;15.00;99.90;;;;;;5077442;28;20570;-61
2023/10/07 05:26:03;;;;;;;17.47;14.30;;;15.10;99.90;;;;;;5075593;28;20995;-62
2023/10/07 05:28:32;;;;;;;15.07;13.57;;;15.10;99.90;;;;;;5075884;28;20439;-61
2023/10/07 05:31:03;;;;;;;16.67;14.40;;;15.10;99.90;;;;;;5075593;28;20478;-61
2023/10/07 05:33:32;;;;;;;20.73;15.10;;;15.10;99.90;;;;;;5075856;28;20509;-61
2023/10/07 05:36:08;;;;;;;20.03;15.47;;;15.10;99.90;;;;;;5075668;28;20443;-61
2023/10/07 05:38:35;;;;;;;16.70;14.83;;;15.20;99.90;;;;;;5075938;28;20893;-61
2023/10/07 05:41:02;;;;;;;19.47;16.40;;;15.20;99.90;;;;;;5075403;28;20445;-62
2023/10/07 05:43:31;;;;;;;18.10;14.80;;;15.20;99.90;;;;;;5076164;28;20445;-62
2023/10/07 05:45:59;;;;;;;19.57;15.50;;;15.20;99.90;;;;;;5075331;28;20458;-62
2023/10/07 05:48:26;;;;;;;16.60;14.90;;;15.20;99.90;;;;;;5075351;28;20530;-63
2023/10/07 05:50:54;;;;;;;19.43;16.90;;;15.30;99.90;;;;;;5075563;28;20489;-61
2023/10/07 05:53:21;;;;;;;21.63;15.50;;;15.30;99.90;;;;;;5075502;28;20450;-63
2023/10/07 05:55:48;;;;;;;19.10;15.50;;;15.30;99.90;;;;;;5076421;28;20458;-62
2023/10/07 05:58:15;;;;;;;16.93;15.23;;;15.30;99.90;;;;;;5075739;28;20435;-61
2023/10/07 06:00:42;;;;;;;16.73;15.07;;;15.30;99.90;;;;;;5075353;28;20450;-61
2023/10/07 06:03:12;;;;;;;18.10;15.10;;;15.40;99.90;;;;;;5075174;28;20463;-60
2023/10/07 06:05:39;;;;;;;20.13;16.20;;;15.40;99.90;;;;;;5075257;28;20801;-61
2023/10/07 06:08:07;;;;;;;20.60;15.90;;;15.40;99.90;;;;;;5076122;28;20812;-61
2023/10/07 06:10:36;;;;;;;18.40;16.60;;;15.40;99.90;;;;;;5076332;28;20509;-63
2023/10/07 06:13:08;;;;;;;20.93;16.63;;;15.40;99.90;;;;;;5076151;28;20550;-57
2023/10/07 06:15:37;;;;;;;21.80;17.33;;;15.50;99.90;;;;;;5077276;28;20459;-61
2023/10/07 06:18:05;;;;;;;23.40;19.00;;;15.50;99.90;;;;;;5076028;28;20450;-61
2023/10/07 06:20:37;;;;;;;22.40;18.40;;;15.50;99.90;;;;;;5075564;28;20827;-60
2023/10/07 06:23:13;;;;;;;22.30;18.10;;;15.50;99.90;;;;;;5076153;28;20462;-60
2023/10/07 06:25:42;;;;;;;21.13;17.90;;;15.50;99.90;;;;;;5077088;28;20476;-61
2023/10/07 06:28:10;;;;;;;24.30;19.70;;;15.50;99.90;;;;;;5076793;28;20959;-61
2023/10/07 06:30:38;;;;;;;24.50;19.47;;;15.50;99.90;;;;;;5077242;28;20446;-60
2023/10/07 06:33:05;;;;;;;24.70;18.47;;;15.50;99.90;;;;;;5075363;28;20483;-60
2023/10/07 06:35:34;;;;;;;23.43;18.80;;;15.50;99.90;;;;;;5075050;28;20490;-61
2023/10/07 06:38:05;;;;;;;20.30;18.20;;;15.60;99.90;;;;;;5076819;28;20519;-60
2023/10/07 06:40:35;;;;;;;21.17;18.73;;;15.50;99.90;;;;;;5075278;28;20450;-60
2023/10/07 06:43:02;;;;;;;20.83;18.60;;;15.50;99.90;;;;;;5075058;28;20459;-60
2023/10/07 06:45:35;;;;;;;21.47;19.17;;;15.60;99.90;;;;;;5075453;28;20453;-60
2023/10/07 06:48:05;;;;;;;21.53;19.17;;;15.60;99.90;;;;;;5075466;28;20463;-60
2023/10/07 06:50:34;;;;;;;21.20;17.80;;;15.60;99.90;;;;;;5075394;28;20436;-60
2023/10/07 06:53:01;;;;;;;25.00;20.17;;;15.60;99.90;;;;;;5075276;28;20493;-61
2023/10/07 06:55:28;;;;;;;22.43;18.53;;;15.60;99.90;;;;;;5075147;28;20432;-60
2023/10/07 06:57:56;;;;;;;24.27;20.17;;;15.60;99.90;;;;;;5074767;28;20487;-60
2023/10/07 07:00:24;;;;;;;24.70;18.37;;;15.70;99.90;;;;;;5074718;28;20447;-60
2023/10/07 07:02:57;;;;;;;24.70;18.97;;;15.70;99.90;;;;;;5074267;28;20495;-60
2023/10/07 07:05:24;;;;;;;26.60;19.93;;;15.70;99.90;;;;;;5074395;28;20429;-59
2023/10/07 07:07:53;;;;;;;25.00;19.03;;;15.70;99.90;;;;;;5074629;28;20463;-60
2023/10/07 07:10:27;;;;;;;23.93;19.23;;;15.70;99.90;;;;;;5074684;28;20452;-60
2023/10/07 07:12:58;;;;;;;22.03;18.00;;;15.70;99.90;;;;;;5074652;28;20483;-61
2023/10/07 07:15:28;;;;;;;24.53;20.20;;;15.80;99.90;;;;;;5074451;28;20436;-60
2023/10/07 07:18:05;;;;;;;23.40;19.13;;;15.80;99.90;;;;;;5074680;28;20448;-60
2023/10/07 07:20:48;;;;;;;27.43;19.77;;;15.80;99.90;;;;;;5074111;28;20902;-63
2023/10/07 07:23:16;;;;;;;26.37;21.17;;;15.80;99.90;;;;;;5074712;28;20877;-60
2023/10/07 07:25:50;;;;;;;23.83;20.70;;;15.90;99.90;;;;;;5074788;28;20442;-61
2023/10/07 07:28:18;;;;;;;23.17;19.30;;;15.80;99.90;;;;;;5075016;28;20825;-61
2023/10/07 07:30:44;;;;;;;25.20;18.97;;;15.90;99.90;;;;;;5074231;28;20445;-61
2023/10/07 07:33:13;;;;;;;26.97;19.20;;;15.90;99.90;;;;;;5074429;28;20480;-61
2023/10/07 07:35:42;;;;;;;23.20;18.70;;;15.90;99.90;;;;;;5075564;28;20503;-60
2023/10/07 07:38:26;;;;;;;23.87;19.10;;;15.90;99.90;;;;;;5075422;28;20443;-61
2023/10/07 07:41:03;;;;;;;22.57;18.57;;;15.90;99.90;;;;;;5079576;28;20921;-61
2023/10/07 07:43:30;;;;;;;25.70;19.53;;;16.00;99.90;;;;;;5076573;28;20519;-60
2023/10/07 07:46:11;;;;;;;30.20;19.40;;;16.10;99.90;;;;;;5074100;28;20437;-60
2023/10/07 07:48:38;;;;;;;25.87;18.70;;;16.10;99.90;;;;;;5073835;28;20526;-60
2023/10/07 07:51:07;;;;;;;24.40;18.30;;;16.10;99.90;;;;;;5074174;28;20442;-60
2023/10/07 07:53:34;;;;;;;22.27;19.37;;;16.20;99.90;;;;;;5075189;28;20483;-61
2023/10/07 07:56:03;;;;;;;20.30;17.83;;;16.20;99.90;;;;;;5073833;28;20437;-61
2023/10/07 07:58:30;;;;;;;24.20;18.37;;;16.20;99.90;;;;;;5074332;28;20475;-59
2023/10/07 08:01:04;;;;;;;24.53;19.40;;;16.30;99.90;;;;;;5074680;28;20436;-62
2023/10/07 08:03:35;;;;;;;23.40;18.60;;;16.30;99.90;;;;;;5074012;28;20424;-61
2023/10/07 08:06:04;;;;;;;21.60;18.23;;;16.40;99.90;;;;;;5074190;28;20469;-59
2023/10/07 08:08:31;;;;;;;19.97;17.93;;;16.40;99.90;;;;;;5074114;28;20513;-60
2023/10/07 08:10:59;;;;;;;23.80;18.57;;;16.40;99.90;;;;;;5073621;28;20448;-61
2023/10/07 08:13:28;;;;;;;23.70;18.70;;;16.40;99.90;;;;;;5074308;28;20537;-60
2023/10/07 08:15:54;;;;;;;26.37;18.70;;;16.30;99.90;;;;;;5073628;28;20436;-60
2023/10/07 08:18:28;;;;;;;23.07;19.30;;;16.30;99.90;;;;;;5073583;28;20945;-60
2023/10/07 08:21:06;;;;;;;24.20;18.30;;;16.30;99.90;;;;;;5073948;28;20450;-61
2023/10/07 08:23:36;;;;;;;24.43;19.90;;;16.30;99.90;;;;;;5073671;28;20421;-59
2023/10/07 08:26:10;;;;;;;22.20;18.77;;;16.40;99.90;;;;;;5073749;28;20444;-59
2023/10/07 08:28:42;;;;;;;23.57;18.77;;;16.40;99.90;;;;;;5073862;28;20460;-59
2023/10/07 08:31:19;;;;;;;23.47;18.83;;;16.40;99.90;;;;;;5073515;28;20465;-60
2023/10/07 08:33:53;;;;;;;32.13;19.80;;;16.40;99.90;;;;;;5073336;28;20457;-59
2023/10/07 08:36:27;;;;;;;21.43;19.20;;;16.40;99.90;;;;;;5073381;28;20486;-60
2023/10/07 08:38:56;;;;;;;30.40;19.43;;;16.40;99.90;;;;;;5073667;28;20480;-59
2023/10/07 08:41:26;;;;;;;24.13;18.53;;;16.40;99.90;;;;;;5074002;28;20464;-59
2023/10/07 08:44:06;;;;;;;25.20;19.67;;;16.50;99.90;;;;;;5074416;28;20500;-60
2023/10/07 08:46:37;;;;;;;25.13;20.40;;;16.50;99.90;;;;;;5073755;28;20431;-59
2023/10/07 08:49:10;;;;;;;22.33;17.53;;;16.50;99.90;;;;;;5073715;28;20905;-61
2023/10/07 08:51:41;;;;;;;21.87;19.40;;;16.50;99.90;;;;;;5075404;28;20508;-60
2023/10/07 08:54:10;;;;;;;22.53;19.63;;;16.60;99.90;;;;;;5074647;28;20429;-60
2023/10/07 08:56:40;;;;;;;25.87;19.67;;;16.60;99.90;;;;;;5073528;28;20476;-59
2023/10/07 08:59:12;;;;;;;23.17;19.30;;;16.60;99.90;;;;;;5077592;28;20425;-60
2023/10/07 09:01:42;;;;;;;24.40;18.50;;;16.70;99.90;;;;;;5078193;28;20866;-60
2023/10/07 09:04:08;;;;;;;22.97;19.40;;;16.80;99.90;;;;;;5077763;28;20487;-59
2023/10/07 09:06:38;;;;;;;22.80;18.80;;;16.90;99.90;;;;;;5077216;28;20444;-59
2023/10/07 09:09:06;;;;;;;20.47;17.30;;;17.00;99.90;;;;;;5077071;28;20462;-61
2023/10/07 09:11:37;;;;;;;20.60;18.43;;;17.10;99.90;;;;;;5076737;28;20481;-60
2023/10/07 09:14:10;;;;;;;24.40;18.63;;;17.30;99.90;;;;;;5077260;28;20505;-61
2023/10/07 09:16:38;;;;;;;22.27;19.40;;;17.40;99.90;;;;;;5077716;28;20517;-61
2023/10/07 09:19:10;;;;;;;21.83;18.00;;;17.50;99.90;;;;;;5077669;28;20451;-60
2023/10/07 09:21:38;;;;;;;20.80;16.87;;;17.50;99.90;;;;;;5077773;28;20466;-59
2023/10/07 09:24:13;;;;;;;19.90;17.30;;;17.50;99.90;;;;;;5077634;28;20568;-61
2023/10/07 09:26:56;;;;;;;25.50;19.30;;;17.60;99.90;;;;;;5077719;28;20431;-58
2023/10/07 09:29:26;;;;;;;23.67;17.20;;;17.70;99.90;;;;;;5076507;28;20482;-60
2023/10/07 09:31:59;;;;;;;28.03;19.60;;;17.70;99.90;;;;;;5077085;28;20554;-59
2023/10/07 09:34:41;;;;;;;21.30;17.73;;;17.80;99.90;;;;;;5077668;28;20428;-60
2023/10/07 09:37:13;;;;;;;21.00;17.87;;;18.00;99.90;;;;;;5077826;28;20432;-59
2023/10/07 09:39:45;;;;;;;23.43;17.00;;;18.20;99.90;;;;;;5077021;28;20428;-61
2023/10/07 09:45:09;;;;;;;19.40;16.30;;;18.40;99.90;;;;;;5070878;28;20808;-60
2023/10/07 09:47:38;;;;;;;23.10;18.45;;;18.40;99.90;;;;;;5075172;28;20412;-60
2023/10/07 09:50:19;;;;;;;22.17;17.47;;;18.30;99.90;;;;;;5076365;28;20214;-59
2023/10/07 09:52:51;;;;;;;25.13;17.00;;;18.20;99.90;;;;;;5076635;28;20483;-61
2023/10/07 09:55:56;;;;;;;21.27;16.57;;;18.10;99.90;;;;;;5076950;28;20426;-60
2023/10/07 09:58:41;;;;;;;19.10;16.17;;;18.10;99.90;;;;;;5067929;28;20956;-59
2023/10/07 10:01:34;;;;;;;21.50;16.67;;;18.20;99.90;;;;;;5076337;28;20789;-60
2023/10/07 10:04:28;;;;;;;20.13;16.53;;;18.30;99.90;;;;;;5075559;28;20464;-60
2023/10/07 10:07:15;;;;;;;23.73;16.57;;;18.40;99.90;;;;;;5076490;28;20427;-60
2023/10/07 10:10:05;;;;;;;19.37;17.03;;;18.50;99.90;;;;;;5076391;28;20441;-59
2023/10/07 10:12:49;;;;;;;18.97;15.57;;;18.60;99.90;;;;;;5075805;28;20589;-61
2023/10/07 10:18:02;;;;;;;22.90;17.87;;;18.60;99.90;;;;;;5075293;28;20434;-58
2023/10/07 10:20:42;;;;;;;20.03;15.17;;;18.60;99.90;;;;;;5075772;28;20433;-60
2023/10/07 10:23:18;;;;;;;17.57;15.53;;;18.60;99.90;;;;;;5075152;28;20969;-59
2023/10/07 10:25:48;;;;;;;18.73;15.97;;;18.60;99.90;;;;;;5074683;28;20431;-62
2023/10/07 10:28:25;;;;;;;19.00;16.47;;;18.60;99.90;;;;;;5074876;28;20436;-59
2023/10/07 10:30:53;;;;;;;19.63;16.60;;;18.60;99.90;;;;;;5075588;28;20476;-60
2023/10/07 10:33:23;;;;;;;19.23;16.30;;;18.60;99.90;;;;;;5075337;28;20569;-59
2023/10/07 10:35:51;;;;;;;20.10;15.73;;;18.60;99.90;;;;;;5075587;28;20498;-59
2023/10/07 10:38:19;;;;;;;19.40;16.30;;;18.70;99.90;;;;;;5076026;28;20441;-61
2023/10/07 10:40:46;;;;;;;17.37;15.07;;;18.70;99.90;;;;;;5074999;28;20448;-60
2023/10/07 10:43:22;;;;;;;22.80;16.57;;;18.80;99.90;;;;;;5074851;28;20529;-59
2023/10/07 10:45:59;;;;;;;20.63;15.67;;;18.70;99.90;;;;;;5075573;28;20450;-61
2023/10/07 10:48:29;;;;;;;22.00;16.47;;;18.70;99.90;;;;;;5074970;28;20424;-61
2023/10/07 10:50:56;;;;;;;20.33;14.97;;;18.60;99.90;;;;;;5075669;28;20507;-62
2023/10/07 10:53:23;;;;;;;17.50;15.57;;;18.50;99.90;;;;;;5074946;28;20471;-60
2023/10/07 10:55:53;;;;;;;21.90;16.67;;;18.50;99.90;;;;;;5074264;28;20882;-60
2023/10/07 10:58:21;;;;;;;23.50;16.83;;;18.50;99.90;;;;;;5074365;28;20452;-61
2023/10/07 11:00:51;;;;;;;22.33;17.17;;;18.40;99.90;;;;;;5074376;28;20447;-61
2023/10/07 11:03:20;;;;;;;17.60;15.13;;;18.40;99.90;;;;;;5074495;28;20491;-61
2023/10/07 11:05:49;;;;;;;20.80;15.40;;;18.50;99.90;;;;;;5074339;28;20443;-59
2023/10/07 11:08:22;;;;;;;22.97;15.53;;;18.40;99.90;;;;;;5074494;28;20443;-60
2023/10/07 11:10:51;;;;;;;18.10;16.03;;;18.50;99.90;;;;;;5074139;28;20451;-59
2023/10/07 11:13:17;;;;;;;19.73;14.73;;;18.50;99.90;;;;;;5074067;28;20905;-60
2023/10/07 11:15:58;;;;;;;16.83;13.60;;;18.50;99.90;;;;;;5074342;28;20440;-61
2023/10/07 11:18:30;;;;;;;16.37;14.60;;;18.60;99.90;;;;;;5074979;28;20432;-59
2023/10/07 11:21:01;;;;;;;16.90;14.33;;;18.50;99.90;;;;;;5074096;28;20427;-61
2023/10/07 11:23:28;;;;;;;19.20;13.77;;;18.50;99.90;;;;;;5074449;28;20420;-60
2023/10/07 11:25:56;;;;;;;17.10;14.80;;;18.50;99.90;;;;;;5075047;28;20451;-60
2023/10/07 11:28:23;;;;;;;19.57;13.70;;;18.60;99.90;;;;;;5074913;28;20451;-60
2023/10/07 11:30:51;;;;;;;17.23;13.87;;;18.60;99.90;;;;;;5075206;28;20439;-61
2023/10/07 11:33:19;;;;;;;14.40;13.00;;;18.60;99.90;;;;;;5073713;28;20579;-61
2023/10/07 11:35:59;;;;;;;15.27;13.07;;;18.60;99.90;;;;;;5073640;28;20447;-61
2023/10/07 11:38:26;;;;;;;14.67;12.10;;;18.60;99.90;;;;;;5074135;28;20473;-61
2023/10/07 11:40:53;;;;;;;15.00;11.50;;;18.60;99.90;;;;;;5074365;28;20448;-60
2023/10/07 11:43:20;;;;;;;14.50;13.00;;;18.70;99.90;;;;;;5073809;28;20539;-60
2023/10/07 11:45:48;;;;;;;12.87;11.53;;;18.70;99.90;;;;;;5074057;28;20446;-60
2023/10/07 11:48:15;;;;;;;14.73;12.90;;;18.90;99.90;;;;;;5075122;28;20457;-60
2023/10/07 11:50:41;;;;;;;13.50;11.70;;;19.00;99.90;;;;;;5073672;28;20469;-60
2023/10/07 11:53:09;;;;;;;22.33;12.13;;;19.20;99.90;;;;;;5073500;28;20572;-62
2023/10/07 11:55:38;;;;;;;17.53;12.07;;;19.20;99.90;;;;;;5073349;28;20446;-61
2023/10/07 11:58:07;;;;;;;12.20;11.00;;;19.30;99.90;;;;;;5073578;28;20455;-61
2023/10/07 12:00:35;;;;;;;14.10;11.37;;;19.20;99.90;;;;;;5072510;28;20485;-60
2023/10/07 12:03:06;;;;;;;13.80;11.80;;;19.10;99.90;;;;;;5072863;28;20532;-60
2023/10/07 12:05:34;;;;;;;13.50;12.10;;;19.10;99.90;;;;;;5073010;28;20435;-61
2023/10/07 12:08:01;;;;;;;11.87;10.67;;;19.10;99.90;;;;;;5073185;28;20445;-58
2023/10/07 12:10:30;;;;;;;14.53;11.57;;;19.10;99.90;;;;;;5074158;28;20456;-61
2023/10/07 12:12:58;;;;;;;13.73;12.30;;;19.10;99.90;;;;;;5074573;28;20484;-59
2023/10/07 12:15:25;;;;;;;12.60;11.37;;;19.10;99.90;;;;;;5073375;28;20578;-61
2023/10/07 12:17:53;;;;;;;12.47;11.10;;;19.20;99.90;;;;;;5072982;28;20451;-60
2023/10/07 12:20:21;;;;;;;12.80;11.60;;;19.30;99.90;;;;;;5071955;28;20506;-59
2023/10/07 12:22:48;;;;;;;13.03;11.90;;;19.40;99.90;;;;;;5072816;28;21062;-59
2023/10/07 12:25:17;;;;;;;15.40;11.90;;;19.50;99.90;;;;;;5072874;28;20448;-60
2023/10/07 12:27:45;;;;;;;14.10;10.80;;;19.50;99.90;;;;;;5072752;28;20441;-57
2023/10/07 12:30:14;;;;;;;13.10;11.13;;;19.50;99.90;;;;;;5073064;28;20443;-61
2023/10/07 12:32:41;;;;;;;12.80;11.27;;;19.50;99.90;;;;;;5073581;28;20474;-65
2023/10/07 12:35:09;;;;;;;12.20;10.70;;;19.50;99.90;;;;;;5078681;28;20450;-60
2023/10/07 12:37:38;;;;;;;14.83;10.93;;;19.50;99.90;;;;;;5076821;28;20946;-63
2023/10/07 12:40:10;;;;;;;11.40;10.33;;;19.60;99.90;;;;;;5078328;28;20564;-61
2023/10/07 12:42:37;;;;;;;11.40;10.17;;;19.70;99.90;;;;;;5078101;28;20459;-61
2023/10/07 12:45:06;;;;;;;10.73;9.20;;;19.80;99.90;;;;;;5077982;28;20454;-61
2023/10/07 12:47:33;;;;;;;10.30;9.30;;;20.00;99.90;;;;;;5078196;28;20445;-61
2023/10/07 12:50:00;;;;;;;13.90;9.00;;;20.10;99.90;;;;;;5077981;28;20442;-62
2023/10/07 12:52:29;;;;;;;10.73;7.40;;;20.30;99.90;;;;;;5078002;28;20480;-58
2023/10/07 12:54:56;;;;;;;10.47;9.47;;;20.40;99.90;;;;;;5077634;28;20492;-60
2023/10/07 12:57:26;;;;;;;8.00;7.30;;;20.50;99.90;;;;;;5077916;28;20802;-60
2023/10/07 12:59:53;;;;;;;9.70;7.47;;;20.60;99.90;;;;;;5076449;28;20530;-61
2023/10/07 13:02:23;;;;;;;7.80;6.90;;;20.70;99.90;;;;;;5075969;28;20470;-61
2023/10/07 13:04:54;;;;;;;7.83;6.53;;;20.80;99.90;;;;;;5077498;28;20525;-61
2023/10/07 13:07:21;;;;;;;8.77;6.10;;;20.90;99.90;;;;;;5076651;28;20517;-60
2023/10/07 13:09:48;;;;;;;7.53;5.93;;;21.00;99.90;;;;;;5076544;28;20450;-58
2023/10/07 13:12:15;;;;;;;7.07;6.10;;;21.10;99.90;;;;;;5076997;28;20476;-60